Melrose, Iowa
Current Conditions -  °F | °C
As of 4:35 PM on Wednesday 22 Oct 2014 (Local Time) from KCNC Reporting Station
Overcast Overcast  
Wind Chill: 64°   Ceiling: 3400
Heat Index: 64°   Visibility: 10mi
Dew Point: 46°   Wind: 14mph
Humidity: 52%   Direction: 140°SE
Pressure: 30.13"   Gusts: NA
Location:  40.98°N, 93.05°W
Report Text: KCNC 222135Z AUTO 14012KT 10SM BKN034 OVC075 18/08 A3013 RMK AO2
Loading
Personal Weather Stations






























Interactive Weather Map
Tropical Storm Tracking
New forecast layout! Learn more

10-Day Weather Forecast

Advertisements
Track Severe Weather on mobile